Airfield :
LOGIN :

Register | Disclaimer

   EN    FR    IT 

 










Legend :    VFR   Marginal VFR   IFR   Intensive IFR   Very Intensive IFR
Visi :
Ceiling :
>= 8 km
>= 3000ft
5 to 8 km
1000 to 3000 ft
1500m to 5 km
500 to 1000 ft
800 to 1500m
200 to 500 ft
< 800m
< 200 ft
Symbols :   Thunderstorms  Fog  Heavy snow  Heavy precipitations  Wind > 20 kt
SIGMETs :     Misc.  Thunderstorms  Icing  Turbulence  Mountain Waves  Volcanic Ashes






- Airport Elevation : 297 ft


EGVP - Middle Wallop

CURRENT METAR :
  • 041150Z 22012KT 9999 5000S -DZ SCT011 OVC035 17/14 Q1017 BECMG 9999 SCT015 RMK GRN BECMG WHT

EXPIRED METARs :
  • 041134Z 22013KT 9999 SCT010 BKN026 16/14 Q1017 BECMG SCT015 RMK GRN BECMG WHT
  • 041120Z 21012KT 9999 7000SW SCT010 OVC030 16/14 Q1017 NOSIG RMK GRN GRN
  • 041101Z 20010KT 9999 SCT009 OVC014 16/14 Q1017 NOSIG RMK GRN GRN
  • 041020Z 22010KT 9999 6000SW -DZ BKN014 OVC030 16/13 Q1017 NOSIG RMK GRN
  • 040950Z 21011KT 9999 SCT014 BKN030 BKN250 16/13 Q1017 BECMG SCT015 RMK GRN BECMG WHT
  • 040920Z 21011KT 9999 SCT014 BKN030 16/13 Q1017 BECMG SCT015 RMK GRN BECMG WHT

TAF TAF EGVP
Valid from the 04 at 12:00 until the 04 at 21:00 UTC


041032Z 0412/0421 22012KT 9999 BKN025
TEMPO 0412/0421 BKN018
PROB40
TEMPO 0412/0413 6000 -DZ BKN014
PROB40
TEMPO 0416/0421 6000 -DZ BKN014
ATIS : +44 1980 674 142



MET'MAP, your aeronautical weather chart ! - Copyright ORBIFLY December 2007 - Disclaimer

ORBIFLY MET'MAP TEAM :

Programming & Development : Alexandra Zaïnal
Original concept : Baudouin d'Aumeries
Technical & hardware support : Manuel Goepfert
Assistance : Marc-Olivier Méhu




SOURCES & CREDITS :

   NOAA